createdAt,value
2017-09-11T12:10:50.165Z,18688
2017-09-11T12:11:50.166Z,19360
2017-09-11T12:12:50.161Z,19424
2017-09-11T12:13:49.867Z,19520
2017-09-11T12:14:50.167Z,19840
2017-09-11T12:15:50.164Z,19104
2017-09-11T12:16:50.196Z,18560
2017-09-11T12:17:50.173Z,18624
2017-09-11T12:18:50.171Z,19360
2017-09-11T12:19:49.872Z,19936
2017-09-11T12:20:49.880Z,20192
2017-09-11T12:21:49.875Z,20000
2017-09-11T12:22:50.503Z,18688
2017-09-11T12:23:50.516Z,16832
2017-09-11T12:24:50.540Z,15828
2017-09-11T12:25:49.576Z,16480
2017-09-11T12:26:50.188Z,16288
2017-09-11T12:27:50.200Z,14900
2017-09-11T12:28:50.197Z,13892
2017-09-11T12:29:50.209Z,13924
2017-09-11T12:30:50.522Z,14912
2017-09-11T12:31:50.505Z,15948
2017-09-11T12:32:50.534Z,15920
2017-09-11T12:33:50.229Z,15844
2017-09-11T12:34:50.542Z,16448
2017-09-11T12:35:50.231Z,16544
2017-09-11T12:36:50.537Z,16416
2017-09-11T12:37:50.525Z,16448
2017-09-11T12:38:50.557Z,16096
2017-09-11T12:39:49.917Z,15672
2017-09-11T12:40:50.239Z,15220
2017-09-11T12:41:50.239Z,14328
2017-09-11T12:42:50.562Z,13112
2017-09-11T12:43:49.925Z,11908
2017-09-11T12:44:50.259Z,11692
2017-09-11T12:45:50.560Z,12684
2017-09-11T12:46:50.571Z,13112
2017-09-11T12:47:50.269Z,14492
2017-09-11T12:48:50.568Z,17184
2017-09-11T12:49:50.563Z,18080
2017-09-11T12:50:50.256Z,17824
2017-09-11T12:51:50.263Z,18016
2017-09-11T12:52:50.268Z,17024
2017-09-11T12:53:50.272Z,15248
2017-09-11T12:54:50.589Z,13940
2017-09-11T12:55:50.586Z,13740
2017-09-11T12:56:50.576Z,13668
2017-09-11T12:57:50.590Z,13972
2017-09-11T12:58:50.604Z,14064
2017-09-11T12:59:50.292Z,14212
2017-09-11T13:00:50.301Z,14612
2017-09-11T13:01:50.597Z,14688
2017-09-11T13:02:50.593Z,14816
2017-09-11T13:03:50.295Z,14568
2017-09-11T13:04:50.618Z,14520
2017-09-11T13:05:50.611Z,14800
2017-09-11T13:06:50.616Z,15064
2017-09-11T13:07:50.616Z,15452
2017-09-11T13:08:50.617Z,15500
2017-09-11T13:09:50.613Z,15312
2017-09-11T13:10:50.319Z,15272
2017-09-11T13:11:50.628Z,15184
2017-09-11T13:12:50.645Z,14948
2017-09-11T13:13:50.308Z,14536
2017-09-11T13:14:50.021Z,13316
2017-09-11T13:15:50.325Z,11188
2017-09-11T13:16:50.646Z,9308
2017-09-11T13:17:50.333Z,8440
2017-09-11T13:18:50.659Z,8112
2017-09-11T13:19:50.336Z,7580
2017-09-11T13:20:50.647Z,7704
2017-09-11T13:21:50.644Z,8452
2017-09-11T13:22:50.700Z,9464
2017-09-11T13:23:50.353Z,10480
2017-09-11T13:24:50.663Z,10220
2017-09-11T13:25:50.671Z,9784
2017-09-11T13:26:50.349Z,11132
2017-09-11T13:27:50.675Z,11760
2017-09-11T13:28:50.351Z,11400
2017-09-11T13:29:50.350Z,11776
2017-09-11T13:30:50.681Z,12404
2017-09-11T13:31:50.681Z,12396
2017-09-11T13:32:50.672Z,12436
2017-09-11T13:33:50.365Z,13008
2017-09-11T13:34:50.682Z,13596
2017-09-11T13:35:50.678Z,13668
2017-09-11T13:36:50.365Z,14176
2017-09-11T13:37:50.368Z,14616
2017-09-11T13:38:50.672Z,14420
2017-09-11T13:39:50.677Z,13536
2017-09-11T13:40:50.692Z,12640
2017-09-11T13:41:50.373Z,12236
2017-09-11T13:42:50.069Z,11480
2017-09-11T13:43:50.069Z,10968
2017-09-11T13:44:50.392Z,10656
2017-09-11T13:45:50.699Z,11864
2017-09-11T13:46:50.390Z,14544
2017-09-11T13:47:50.699Z,15700
2017-09-11T13:48:50.384Z,16896
2017-09-11T13:49:50.710Z,17536
2017-09-11T13:50:50.723Z,15292
2017-09-11T13:51:50.092Z,14180
2017-09-11T13:52:50.393Z,14540
2017-09-11T13:53:50.697Z,15904
2017-09-11T13:54:50.084Z,16928
2017-09-11T13:55:50.094Z,16192
2017-09-11T13:56:50.714Z,15148
2017-09-11T13:57:50.408Z,13652
2017-09-11T13:58:50.403Z,11860
2017-09-11T13:59:50.417Z,12536
2017-09-11T14:00:50.744Z,12696
2017-09-11T14:01:50.418Z,11084
2017-09-11T14:02:50.710Z,11120
2017-09-11T14:03:50.404Z,12168
2017-09-11T14:04:50.724Z,11496
2017-09-11T14:05:50.725Z,11616
2017-09-11T14:06:50.722Z,13304
2017-09-11T14:07:50.736Z,13820
2017-09-11T14:08:50.421Z,13220
2017-09-11T14:09:50.415Z,12264
2017-09-11T14:10:50.722Z,12192
2017-09-11T14:11:50.749Z,12224
2017-09-11T14:12:50.432Z,12692
2017-09-11T14:13:50.420Z,12580
2017-09-11T14:14:50.429Z,12028
2017-09-11T14:15:50.426Z,12680
2017-09-11T14:16:50.419Z,12484
2017-09-11T14:17:50.747Z,13056
2017-09-11T14:18:50.747Z,13964
2017-09-11T14:19:50.745Z,12868
2017-09-11T14:20:50.128Z,12068
2017-09-11T14:21:50.748Z,11512
2017-09-11T14:22:50.765Z,11124
2017-09-11T14:23:50.445Z,11676
2017-09-11T14:24:50.754Z,11988
2017-09-11T14:25:50.757Z,11756
2017-09-11T14:26:50.133Z,11544
2017-09-11T14:27:50.138Z,11228
2017-09-11T14:28:50.443Z,11280
2017-09-11T14:29:50.799Z,11404
2017-09-11T14:30:50.465Z,11592
2017-09-11T14:31:50.766Z,11832
2017-09-11T14:32:50.460Z,11964
2017-09-11T14:33:50.438Z,12244
2017-09-11T14:34:50.749Z,12440
2017-09-11T14:35:50.458Z,12416
2017-09-11T14:36:50.761Z,12232
2017-09-11T14:37:50.762Z,11772
2017-09-11T14:38:50.454Z,11228
2017-09-11T14:39:50.472Z,10868
2017-09-11T14:40:50.770Z,10600
2017-09-11T14:41:50.767Z,10232
2017-09-11T14:42:50.463Z,9616
2017-09-11T14:43:50.453Z,9820
2017-09-11T14:44:50.463Z,9848
2017-09-11T14:45:50.764Z,9400
2017-09-11T14:46:50.459Z,9508
2017-09-11T14:47:50.782Z,10388
2017-09-11T14:48:50.766Z,11008
2017-09-11T14:49:50.153Z,10940
2017-09-11T14:50:50.818Z,10288
2017-09-11T14:51:50.775Z,9868
2017-09-11T14:52:50.781Z,9988
2017-09-11T14:53:50.776Z,10064
2017-09-11T14:54:50.467Z,10204
2017-09-11T14:55:50.464Z,10624
2017-09-11T14:56:50.773Z,10752
2017-09-11T14:57:50.472Z,10808
2017-09-11T14:58:50.459Z,10776
2017-09-11T14:59:50.480Z,10632
2017-09-11T15:00:50.772Z,10632
2017-09-11T15:01:50.769Z,10344
2017-09-11T15:02:50.158Z,9916
2017-09-11T15:03:50.475Z,9156
2017-09-11T15:04:50.476Z,8472
2017-09-11T15:05:50.481Z,8108
2017-09-11T15:06:50.776Z,7948
2017-09-11T15:07:50.165Z,7436
2017-09-11T15:08:50.481Z,6500
2017-09-11T15:09:50.481Z,5860
2017-09-11T15:10:50.464Z,5368
2017-09-11T15:11:50.463Z,5064
2017-09-11T15:12:50.474Z,5124
2017-09-11T15:13:50.487Z,4956
2017-09-11T15:14:50.480Z,5100
2017-09-11T15:15:50.471Z,5464
2017-09-11T15:16:50.479Z,5824
2017-09-11T15:17:50.790Z,6504
2017-09-11T15:18:50.477Z,7348
2017-09-11T15:19:50.479Z,8120
2017-09-11T15:20:50.470Z,8584
2017-09-11T15:21:50.479Z,8840
2017-09-11T15:22:50.478Z,9020
2017-09-11T15:23:50.483Z,9016
2017-09-11T15:24:50.478Z,9344
2017-09-11T15:25:50.462Z,9640
2017-09-11T15:26:50.462Z,9672
2017-09-11T15:27:50.765Z,9916
2017-09-11T15:28:50.477Z,10136
2017-09-11T15:29:50.781Z,10200
2017-09-11T15:30:50.461Z,10064
2017-09-11T15:31:50.789Z,10020
2017-09-11T15:32:50.160Z,10068
2017-09-11T15:33:50.476Z,9928
2017-09-11T15:34:50.787Z,9504
2017-09-11T15:35:50.786Z,9224
2017-09-11T15:36:50.155Z,9012
2017-09-11T15:37:50.473Z,8852
2017-09-11T15:38:49.835Z,8548
2017-09-11T15:39:50.778Z,8380
2017-09-11T15:40:50.779Z,7996
2017-09-11T15:41:50.771Z,7444
2017-09-11T15:42:50.452Z,6968
2017-09-11T15:43:50.761Z,6784
2017-09-11T15:44:50.459Z,6692
2017-09-11T15:45:50.483Z,6564
2017-09-11T15:46:50.764Z,6252
2017-09-11T15:47:50.769Z,5928
2017-09-11T15:48:50.463Z,5688
2017-09-11T15:49:50.771Z,5964
2017-09-11T15:50:50.470Z,6540
2017-09-11T15:51:50.473Z,7080
2017-09-11T15:52:50.762Z,7380
2017-09-11T15:53:50.769Z,7416
2017-09-11T15:54:50.467Z,7376
2017-09-11T15:55:50.777Z,7424
2017-09-11T15:56:50.469Z,7380
2017-09-11T15:57:50.463Z,7432
2017-09-11T15:58:50.780Z,7432
2017-09-11T15:59:50.761Z,7416
2017-09-11T16:00:50.751Z,7392
2017-09-11T16:01:50.762Z,7180
2017-09-11T16:02:50.483Z,7344
2017-09-11T16:03:50.464Z,7584
2017-09-11T16:04:50.455Z,7676
2017-09-11T16:05:50.752Z,7812
2017-09-11T16:06:50.441Z,7696
2017-09-11T16:07:50.762Z,7572
2017-09-11T16:08:50.461Z,7564
2017-09-11T16:09:50.469Z,7500
2017-09-11T16:10:50.453Z,7456
2017-09-11T16:11:50.462Z,7308
2017-09-11T16:12:50.753Z,7288
2017-09-11T16:13:50.749Z,7248
2017-09-11T16:14:50.756Z,7156
2017-09-11T16:15:50.442Z,6876
2017-09-11T16:16:50.750Z,6828
2017-09-11T16:17:50.747Z,6856
2017-09-11T16:18:50.438Z,6664
2017-09-11T16:19:50.761Z,6324
2017-09-11T16:20:50.748Z,6040
2017-09-11T16:21:50.807Z,5820
2017-09-11T16:22:50.744Z,5612
2017-09-11T16:23:50.748Z,5392
2017-09-11T16:24:50.744Z,5220
2017-09-11T16:25:50.425Z,4972
2017-09-11T16:26:50.743Z,4708
2017-09-11T16:27:50.427Z,4480
2017-09-11T16:28:50.426Z,4180
2017-09-11T16:29:50.731Z,4068
2017-09-11T16:30:50.733Z,3996
2017-09-11T16:31:50.721Z,3892
2017-09-11T16:32:50.106Z,3908
2017-09-11T16:33:50.416Z,3912
2017-09-11T16:34:50.416Z,3908
2017-09-11T16:35:50.423Z,3832
2017-09-11T16:36:50.716Z,3676
2017-09-11T16:37:50.409Z,3368
2017-09-11T16:38:50.767Z,2916
2017-09-11T16:39:50.099Z,2580
2017-09-11T16:40:50.423Z,2352
2017-09-11T16:41:50.705Z,2248
2017-09-11T16:42:50.723Z,2196
2017-09-11T16:43:50.709Z,2144
2017-09-11T16:44:50.710Z,2104
2017-09-11T16:45:50.401Z,2084
2017-09-11T16:46:50.716Z,2096
2017-09-11T16:47:50.095Z,2112
2017-09-11T16:48:50.722Z,2092
2017-09-11T16:49:50.418Z,2104
2017-09-11T16:50:50.685Z,2152
2017-09-11T16:51:50.713Z,2040
2017-09-11T16:52:50.709Z,1928
2017-09-11T16:53:50.705Z,1832
2017-09-11T16:54:50.676Z,1732
2017-09-11T16:55:50.677Z,1712
2017-09-11T16:56:50.709Z,1668
2017-09-11T16:57:50.373Z,1548
2017-09-11T16:58:50.692Z,1468
2017-09-11T16:59:50.688Z,1408
2017-09-11T17:00:50.670Z,1356
2017-09-11T17:01:50.673Z,1304
2017-09-11T17:02:50.371Z,1268
2017-09-11T17:03:50.358Z,1240
2017-09-11T17:04:50.667Z,1204
2017-09-11T17:05:50.671Z,1152
2017-09-11T17:06:50.649Z,1100
2017-09-11T17:07:50.662Z,1048
2017-09-11T17:08:50.359Z,1000
2017-09-11T17:09:50.342Z,960
2017-09-11T17:10:50.687Z,920
2017-09-11T17:11:50.649Z,876
2017-09-11T17:12:50.647Z,840
2017-09-11T17:13:50.317Z,796
2017-09-11T17:14:50.321Z,752
2017-09-11T17:15:50.323Z,708
2017-09-11T17:16:50.322Z,672
2017-09-11T17:17:50.631Z,636
2017-09-11T17:18:50.629Z,608
2017-09-11T17:19:50.617Z,572
2017-09-11T17:20:50.612Z,544
2017-09-11T17:21:50.611Z,504
2017-09-11T17:22:50.623Z,468
2017-09-11T17:23:50.613Z,440
2017-09-11T17:24:50.613Z,420
2017-09-11T17:25:50.596Z,392
2017-09-11T17:26:50.615Z,364
2017-09-11T17:27:50.302Z,332
2017-09-11T17:28:50.587Z,304
2017-09-11T17:29:50.272Z,276
2017-09-11T17:30:50.268Z,256
2017-09-11T17:31:50.582Z,240
2017-09-11T17:32:50.578Z,216
2017-09-11T17:33:50.562Z,196
2017-09-11T17:34:50.567Z,176
2017-09-11T17:35:50.258Z,160
2017-09-11T17:36:50.560Z,140
2017-09-11T17:37:50.555Z,128
2017-09-11T17:38:50.552Z,76
2017-09-11T17:39:50.235Z,68
2017-09-11T17:40:50.226Z,60
2017-09-11T17:41:50.233Z,52
2017-09-11T17:42:50.532Z,44
2017-09-11T17:43:50.522Z,36
2017-09-11T17:44:50.214Z,28
2017-09-11T17:45:50.504Z,28
2017-09-11T17:46:50.510Z,24
2017-09-11T17:47:50.511Z,20
2017-09-11T17:48:49.878Z,16
2017-09-11T17:49:50.186Z,16
2017-09-11T17:50:50.501Z,12
2017-09-11T17:51:50.190Z,12
2017-09-11T17:52:50.177Z,8
2017-09-11T17:53:50.165Z,8
2017-09-11T17:54:49.845Z,8
2017-09-11T17:55:50.482Z,4
2017-09-11T17:56:50.152Z,4
2017-09-11T17:57:50.151Z,4
2017-09-11T17:58:49.527Z,4
2017-09-11T17:59:50.153Z,4
2017-09-11T18:00:50.445Z,0
2017-09-11T18:01:50.435Z,0
2017-09-11T18:02:50.446Z,0
2017-09-11T18:03:50.422Z,0
2017-09-11T18:04:50.430Z,0
2017-09-11T18:05:50.142Z,0
2017-09-11T18:06:50.116Z,0
2017-09-11T18:07:50.412Z,0
2017-09-11T18:08:50.101Z,0
2017-09-11T18:09:50.399Z,0
2017-09-11T18:10:50.078Z,0
2017-09-11T18:11:50.124Z,0
2017-09-11T18:12:49.773Z,0
2017-09-11T18:13:50.389Z,0
2017-09-11T18:14:50.054Z,0
2017-09-11T18:15:50.055Z,0
2017-09-11T18:16:50.060Z,0
2017-09-11T18:17:49.749Z,0
2017-09-11T18:18:50.057Z,0
2017-09-11T18:19:50.049Z,0
2017-09-11T18:20:50.364Z,0
2017-09-11T18:21:50.358Z,0
2017-09-11T18:22:50.343Z,0
2017-09-11T18:23:50.345Z,0
2017-09-11T18:26:50.318Z,0
2017-09-11T18:27:50.022Z,0
2017-09-11T18:28:50.574Z,0
2017-09-11T18:29:50.008Z,0
2017-09-11T18:30:49.693Z,0
2017-09-11T18:31:50.296Z,0
2017-09-11T18:33:49.982Z,0
2017-09-11T18:34:49.984Z,0
2017-09-11T18:35:50.278Z,0
2017-09-11T18:36:50.288Z,0
2017-09-11T18:37:50.287Z,0
2017-09-11T18:38:49.948Z,0
2017-09-11T18:39:50.268Z,0
2017-09-11T18:40:49.949Z,0
2017-09-11T18:41:49.630Z,0
2017-09-11T18:42:50.257Z,0
2017-09-11T18:43:49.925Z,0
2017-09-11T18:44:50.236Z,0
2017-09-11T18:45:49.603Z,0
2017-09-11T18:46:49.915Z,0
2017-09-11T18:47:49.902Z,0
2017-09-11T18:48:49.896Z,0
2017-09-11T18:49:49.922Z,0
2017-09-11T18:50:50.202Z,0
2017-09-11T18:51:49.583Z,0
2017-09-11T18:52:50.208Z,0
2017-09-11T18:53:50.189Z,0
2017-09-11T18:54:49.573Z,0
2017-09-11T18:55:49.866Z,0
2017-09-11T18:56:49.871Z,0
2017-09-11T18:57:50.182Z,0
2017-09-11T18:58:49.856Z,0
2017-09-11T18:59:49.860Z,0
2017-09-11T19:00:50.150Z,0
2017-09-11T19:01:50.167Z,0
2017-09-11T19:02:49.841Z,0
2017-09-11T19:03:49.869Z,0
2017-09-11T19:04:50.146Z,0
2017-09-11T19:05:49.512Z,0
2017-09-11T19:06:50.138Z,0
2017-09-11T19:07:49.824Z,0
2017-09-11T19:08:49.806Z,0
2017-09-11T19:09:49.818Z,0
2017-09-11T19:10:49.806Z,0
2017-09-11T19:11:50.117Z,0
2017-09-11T19:12:49.790Z,0
2017-09-11T19:13:49.781Z,0
2017-09-11T19:14:50.095Z,0
2017-09-11T19:15:50.125Z,0
2017-09-11T19:16:50.085Z,0
2017-09-11T19:17:49.781Z,0
2017-09-11T19:18:50.069Z,0
2017-09-11T19:19:49.752Z,0
2017-09-11T19:20:50.072Z,0
2017-09-11T19:21:50.052Z,0
2017-09-11T19:22:49.733Z,0
2017-09-11T19:23:50.074Z,0
2017-09-11T19:24:50.050Z,0
2017-09-11T19:25:50.031Z,0
2017-09-11T19:26:49.733Z,0
2017-09-11T19:27:50.036Z,0
2017-09-11T19:28:49.718Z,0
2017-09-11T19:29:50.016Z,0
2017-09-11T19:30:50.013Z,0
2017-09-11T19:31:50.012Z,0
2017-09-11T19:32:50.027Z,0
2017-09-11T19:33:50.008Z,0
2017-09-11T19:34:49.994Z,0
2017-09-11T19:35:49.997Z,0
2017-09-11T19:36:49.983Z,0
2017-09-11T19:37:49.362Z,0
2017-09-11T19:38:49.661Z,0
2017-09-11T19:39:49.665Z,0
2017-09-11T19:40:49.970Z,0
2017-09-11T19:41:49.973Z,0
2017-09-11T19:42:49.950Z,0
2017-09-11T19:43:49.943Z,0
2017-09-11T19:44:49.638Z,0
2017-09-11T19:45:49.634Z,0
2017-09-11T19:46:49.633Z,0
2017-09-11T19:47:49.626Z,0
2017-09-11T19:48:49.940Z,0
2017-09-11T19:49:49.608Z,0
2017-09-11T19:50:49.928Z,0
2017-09-11T19:51:49.923Z,0
2017-09-11T19:52:49.915Z,0
2017-09-11T19:53:48.967Z,0
2017-09-11T19:54:49.912Z,0
2017-09-11T19:55:49.581Z,0
2017-09-11T19:56:49.883Z,0
2017-09-11T19:57:49.898Z,0
2017-09-11T19:58:49.573Z,0
2017-09-11T19:59:49.568Z,0
2017-09-11T20:00:49.556Z,0
2017-09-11T20:01:49.258Z,0
2017-09-11T20:02:49.553Z,0
2017-09-11T20:03:49.859Z,0
2017-09-11T20:04:49.886Z,0
2017-09-11T20:05:49.855Z,0
2017-09-11T20:06:49.540Z,0
2017-09-11T20:07:49.530Z,0
2017-09-11T20:08:49.826Z,0
2017-09-11T20:09:49.520Z,0
2017-09-11T20:10:49.827Z,0
2017-09-11T20:11:49.810Z,0
2017-09-11T20:12:49.824Z,0
2017-09-11T20:13:49.812Z,0
2017-09-11T20:14:49.799Z,0
2017-09-11T20:15:49.193Z,0
2017-09-11T20:16:49.490Z,0
2017-09-11T20:17:49.478Z,0
2017-09-11T20:18:49.777Z,0
2017-09-11T20:19:49.779Z,0
2017-09-11T20:20:49.787Z,0
2017-09-11T20:21:49.768Z,0
2017-09-11T20:22:49.760Z,0
2017-09-11T20:23:49.455Z,0
2017-09-11T20:24:49.453Z,0
2017-09-11T20:25:49.747Z,0
2017-09-11T20:26:49.737Z,0
2017-09-11T20:27:49.728Z,0
2017-09-11T20:28:49.742Z,0
2017-09-11T20:29:49.740Z,0
2017-09-11T20:30:49.407Z,0
2017-09-11T20:31:49.101Z,0
2017-09-11T20:32:49.704Z,0
2017-09-11T20:33:49.707Z,0
2017-09-11T20:34:49.082Z,0
2017-09-11T20:35:49.375Z,0
2017-09-11T20:36:49.677Z,0
2017-09-11T20:37:49.378Z,0
2017-09-11T20:38:49.690Z,0
2017-09-11T20:39:49.660Z,0
2017-09-11T20:40:49.358Z,0
2017-09-11T20:41:49.667Z,0
2017-09-11T20:42:49.356Z,0
2017-09-11T20:43:49.648Z,0
2017-09-11T20:44:49.645Z,0
2017-09-11T20:45:49.029Z,0
2017-09-11T20:46:49.314Z,0
2017-09-11T20:47:49.319Z,0
2017-09-11T20:48:49.312Z,0
2017-09-11T20:49:49.311Z,0
2017-09-11T20:50:49.314Z,0
2017-09-11T20:51:49.300Z,0
2017-09-11T20:52:49.622Z,0
2017-09-11T20:53:49.589Z,0
2017-09-11T20:54:49.266Z,0
2017-09-11T20:55:49.582Z,0
2017-09-11T20:56:48.944Z,0
2017-09-11T20:57:49.559Z,0
2017-09-11T20:58:49.279Z,0
2017-09-11T20:59:49.551Z,0
2017-09-11T21:00:49.563Z,0
2017-09-11T21:01:49.568Z,0
2017-09-11T21:02:49.232Z,0
2017-09-11T21:03:49.528Z,0
2017-09-11T21:04:49.519Z,0
2017-09-11T21:05:48.891Z,0
2017-09-11T21:06:49.200Z,0
2017-09-11T21:07:49.521Z,0
2017-09-11T21:08:49.186Z,0
2017-09-11T21:09:49.495Z,0
2017-09-11T21:10:49.470Z,0
2017-09-11T21:11:49.470Z,0
2017-09-11T21:12:49.466Z,0
2017-09-11T21:13:49.466Z,0
2017-09-11T21:14:48.830Z,0
2017-09-11T21:15:49.448Z,0
2017-09-11T21:16:49.137Z,0
2017-09-11T21:17:49.442Z,0
2017-09-11T21:18:49.132Z,0
2017-09-11T21:19:49.430Z,0
2017-09-11T21:20:49.117Z,0
2017-09-11T21:21:49.102Z,0
2017-09-11T21:22:49.415Z,0
2017-09-11T21:23:49.092Z,0
2017-09-11T21:24:49.075Z,0
2017-09-11T21:25:49.390Z,0
2017-09-11T21:26:49.397Z,0
2017-09-11T21:27:49.057Z,0
2017-09-11T21:28:49.364Z,0
2017-09-11T21:29:49.067Z,0
2017-09-11T21:30:49.356Z,0
2017-09-11T21:31:49.341Z,0
2017-09-11T21:32:48.410Z,0
2017-09-11T21:33:49.316Z,0
2017-09-11T21:34:49.009Z,0
2017-09-11T21:35:49.019Z,0
2017-09-11T21:36:49.316Z,0
2017-09-11T21:37:48.988Z,0
2017-09-11T21:38:49.316Z,0
2017-09-11T21:39:48.681Z,0
2017-09-11T21:40:48.974Z,0
2017-09-11T21:41:48.655Z,0
2017-09-11T21:42:48.655Z,0
2017-09-11T21:43:49.270Z,0
2017-09-11T21:44:49.242Z,0
2017-09-11T21:45:48.941Z,0
2017-09-11T21:46:48.622Z,0
2017-09-11T21:47:48.922Z,0
2017-09-11T21:48:49.235Z,0
2017-09-11T21:49:49.230Z,0
2017-09-11T21:50:48.953Z,0
2017-09-11T21:51:49.214Z,0
2017-09-11T21:52:48.879Z,0
2017-09-11T21:53:49.192Z,0
2017-09-11T21:54:49.212Z,0
2017-09-11T21:55:49.177Z,0
2017-09-11T21:56:49.210Z,0
2017-09-11T21:57:48.853Z,0
2017-09-11T21:58:49.171Z,0
2017-09-11T21:59:48.520Z,0
2017-09-11T22:00:49.154Z,0
2017-09-11T22:01:48.842Z,0
2017-09-11T22:02:49.123Z,0
2017-09-11T22:03:49.132Z,0
2017-09-11T22:04:49.152Z,0
2017-09-11T22:05:48.799Z,0
2017-09-11T22:06:49.113Z,0
2017-09-11T22:07:49.117Z,0
2017-09-11T22:08:49.997Z,0
2017-09-11T22:09:49.095Z,0
2017-09-11T22:10:49.083Z,0
2017-09-11T22:11:49.070Z,0
2017-09-11T22:12:49.062Z,0
2017-09-11T22:13:48.752Z,0
2017-09-11T22:14:49.053Z,0
2017-09-11T22:15:49.060Z,0
2017-09-11T22:16:49.031Z,0
2017-09-11T22:17:49.029Z,0
2017-09-11T22:18:48.711Z,0
2017-09-11T22:19:49.017Z,0
2017-09-11T22:20:48.687Z,0
2017-09-11T22:21:48.683Z,0
2017-09-11T22:22:49.001Z,0
2017-09-11T22:23:48.681Z,0
2017-09-11T22:24:48.977Z,0
2017-09-11T22:25:48.970Z,0
2017-09-11T22:26:48.654Z,0
2017-09-11T22:27:48.962Z,0
2017-09-11T22:28:48.651Z,0
2017-09-11T22:29:48.950Z,0
2017-09-11T22:30:48.931Z,0
2017-09-11T22:31:48.932Z,0
2017-09-11T22:32:48.925Z,0
2017-09-11T22:33:48.908Z,0
2017-09-11T22:34:48.907Z,0
2017-09-11T22:35:48.914Z,0
2017-09-11T22:36:48.887Z,0
2017-09-11T22:37:48.567Z,0
2017-09-11T22:38:48.883Z,0
2017-09-11T22:39:48.873Z,0
2017-09-11T22:40:48.543Z,0
2017-09-11T22:41:48.556Z,0
2017-09-11T22:42:48.539Z,0
2017-09-11T22:43:48.528Z,0
2017-09-11T22:44:48.522Z,0
2017-09-11T22:45:48.834Z,0
2017-09-11T22:46:48.825Z,0
2017-09-11T22:47:48.822Z,0
2017-09-11T22:48:48.496Z,0
2017-09-11T22:49:48.497Z,0
2017-09-11T22:50:48.794Z,0
2017-09-11T22:51:48.484Z,0
2017-09-11T22:52:48.466Z,0
2017-09-11T22:53:48.465Z,0
2017-09-11T22:54:48.759Z,0
2017-09-11T22:55:48.439Z,0
2017-09-11T22:56:48.752Z,0
2017-09-11T22:57:48.434Z,0
2017-09-11T22:58:48.733Z,0
2017-09-11T22:59:48.729Z,0
2017-09-11T23:00:48.728Z,0
2017-09-11T23:01:48.706Z,0
2017-09-11T23:02:48.395Z,0
2017-09-11T23:03:48.379Z,0
2017-09-11T23:04:48.733Z,0
2017-09-11T23:05:48.683Z,0
2017-09-11T23:06:48.688Z,0
2017-09-11T23:07:48.365Z,0
2017-09-11T23:08:48.355Z,0
2017-09-11T23:09:48.650Z,0
2017-09-11T23:10:48.645Z,0
2017-09-11T23:11:48.647Z,0
2017-09-11T23:12:48.645Z,0
2017-09-11T23:13:48.628Z,0
2017-09-11T23:14:47.996Z,0
2017-09-11T23:15:48.615Z,0
2017-09-11T23:16:48.309Z,0
2017-09-11T23:17:47.980Z,0
2017-09-11T23:18:48.273Z,0
2017-09-11T23:19:48.577Z,0
2017-09-11T23:20:48.576Z,0
2017-09-11T23:21:48.573Z,0
2017-09-11T23:22:48.565Z,0
2017-09-11T23:23:48.547Z,0
2017-09-11T23:24:48.555Z,0
2017-09-11T23:25:48.538Z,0
2017-09-11T23:26:48.537Z,0
2017-09-11T23:27:48.514Z,0
2017-09-11T23:28:47.892Z,0
2017-09-11T23:29:48.510Z,0
2017-09-11T23:30:48.528Z,0
2017-09-11T23:31:48.180Z,0
2017-09-11T23:32:48.187Z,0
2017-09-11T23:33:48.473Z,0
2017-09-11T23:34:48.475Z,0
2017-09-11T23:35:47.847Z,0
2017-09-11T23:36:47.829Z,0
2017-09-11T23:37:48.448Z,0
2017-09-11T23:38:48.466Z,0
2017-09-11T23:39:48.133Z,0
2017-09-11T23:40:48.111Z,0
2017-09-11T23:41:48.425Z,0
2017-09-11T23:42:48.426Z,0
2017-09-11T23:43:48.080Z,0
2017-09-11T23:44:48.392Z,0
2017-09-11T23:45:48.378Z,0
2017-09-11T23:46:48.077Z,0
2017-09-11T23:47:48.416Z,0
2017-09-11T23:48:48.362Z,0
2017-09-11T23:49:47.738Z,0
2017-09-11T23:50:48.048Z,0
2017-09-11T23:51:48.032Z,0
2017-09-11T23:52:47.721Z,0
2017-09-11T23:53:48.026Z,0
2017-09-11T23:54:48.311Z,0
2017-09-11T23:55:48.331Z,0
2017-09-11T23:56:47.689Z,0
2017-09-11T23:57:48.298Z,0
2017-09-11T23:58:48.291Z,0
2017-09-11T23:59:48.274Z,0
